Time;durP1;ratioP1;P1;durP2;ratioP2;P2;SDS_P1;SDS_P2;PMS_P1;PMS_P2;Temp;Humidity;BMP_temperature;BMP_pressure;BME280_temperature;BME280_humidity;BME280_pressure;Samples;Min_cycle;Max_cycle;Signal;HPM_P1;HPM_P2
2022/05/15 00:05:45;;;;;;;4.53;1.90;;;;;;;18.34;43.07;97244.19;10503678;28;20049;-50
2022/05/15 00:11:06;;;;;;;2.30;1.80;;;;;;;18.33;43.02;97250.72;10517119;28;20379;-50
2022/05/15 00:16:26;;;;;;;2.40;1.70;;;;;;;18.32;43.10;97243.72;10535772;28;20055;-50
2022/05/15 00:21:45;;;;;;;2.38;1.80;;;;;;;18.30;42.98;97237.81;10543842;28;20691;-50
2022/05/15 00:27:05;;;;;;;3.92;2.10;;;;;;;18.30;43.00;97235.13;10535860;28;20048;-50
2022/05/15 00:32:24;;;;;;;3.60;1.90;;;;;;;18.29;43.09;97241.63;10520861;28;20102;-50
2022/05/15 00:37:44;;;;;;;3.28;1.83;;;;;;;18.28;42.84;97231.94;10510434;28;20521;-50
2022/05/15 00:43:03;;;;;;;11.30;2.30;;;;;;;18.27;42.80;97235.75;10535107;28;20064;-50
2022/05/15 00:48:23;;;;;;;2.60;1.92;;;;;;;18.26;42.88;97239.53;10529458;28;20090;-50
2022/05/15 00:53:44;;;;;;;2.63;2.03;;;;;;;18.26;43.05;97234.16;10525798;28;20056;-50
2022/05/15 00:59:09;;;;;;;4.13;1.90;;;;;;;18.25;43.02;97237.13;10527475;28;20048;-50
2022/05/15 01:04:31;;;;;;;3.88;2.10;;;;;;;18.24;42.97;97236.34;10482585;28;20056;-50
2022/05/15 01:09:51;;;;;;;3.95;2.00;;;;;;;18.23;42.87;97234.78;10516094;28;20058;-50
2022/05/15 01:15:18;;;;;;;2.35;2.10;;;;;;;18.22;42.84;97230.47;10503265;28;20052;-50
2022/05/15 01:20:39;;;;;;;4.45;2.67;;;;;;;18.21;42.84;97233.47;10505278;28;20055;-50
2022/05/15 01:26:00;;;;;;;3.70;1.88;;;;;;;18.21;42.96;97236.16;10502187;28;20055;-49
2022/05/15 01:31:22;;;;;;;4.10;2.25;;;;;;;18.19;42.90;97233.78;10494399;28;20114;-50
2022/05/15 01:36:41;;;;;;;3.92;2.28;;;;;;;18.17;42.90;97241.38;10507905;28;20431;-50
2022/05/15 01:42:01;;;;;;;4.53;2.20;;;;;;;18.16;42.86;97242.47;10509406;28;20066;-50
2022/05/15 01:47:21;;;;;;;3.30;2.17;;;;;;;18.15;42.79;97246.25;10515131;28;20410;-49
2022/05/15 01:52:42;;;;;;;2.95;2.30;;;;;;;18.14;42.98;97247.38;10484327;28;20052;-50
2022/05/15 01:58:02;;;;;;;3.40;2.08;;;;;;;18.12;42.99;97234.19;10531188;28;20044;-51
2022/05/15 02:03:22;;;;;;;3.13;2.20;;;;;;;18.13;42.88;97240.38;10513100;28;20059;-50
2022/05/15 02:08:42;;;;;;;2.97;2.20;;;;;;;18.11;42.94;97240.69;10503868;28;20052;-50
2022/05/15 02:14:02;;;;;;;4.47;2.25;;;;;;;18.11;42.91;97229.09;10498225;28;20056;-51
2022/05/15 02:19:24;;;;;;;4.07;2.30;;;;;;;18.09;42.95;97234.00;10500736;28;20047;-51
2022/05/15 02:24:44;;;;;;;3.17;2.20;;;;;;;18.09;43.04;97234.00;10536115;28;20129;-50
2022/05/15 02:30:04;;;;;;;2.42;2.17;;;;;;;18.07;42.91;97228.94;10500150;28;20053;-49
2022/05/15 02:35:24;;;;;;;3.03;2.08;;;;;;;18.07;42.79;97225.41;10508527;28;20048;-51
2022/05/15 02:40:44;;;;;;;2.90;1.95;;;;;;;18.06;42.87;97230.00;10497895;28;20071;-50
2022/05/15 02:46:04;;;;;;;2.97;2.10;;;;;;;18.06;42.73;97231.91;10498833;28;20122;-50
2022/05/15 02:51:25;;;;;;;2.70;2.05;;;;;;;18.03;42.69;97232.50;10534167;28;20087;-50
2022/05/15 02:56:44;;;;;;;4.95;2.28;;;;;;;18.03;42.80;97236.00;10533022;28;20407;-50
2022/05/15 03:02:04;;;;;;;4.57;2.30;;;;;;;18.02;42.89;97237.13;10526046;28;20077;-53
2022/05/15 03:07:23;;;;;;;3.38;1.98;;;;;;;18.01;42.90;97234.72;10514752;28;20048;-50
2022/05/15 03:12:43;;;;;;;4.32;2.40;;;;;;;18.00;42.89;97233.13;10514898;28;20048;-50
2022/05/15 03:18:04;;;;;;;4.15;2.20;;;;;;;18.00;42.80;97241.22;10520961;28;20077;-50
2022/05/15 03:23:23;;;;;;;4.45;2.17;;;;;;;17.98;43.13;97244.22;10538684;28;20498;-51
2022/05/15 03:28:43;;;;;;;3.25;2.17;;;;;;;17.97;43.04;97251.50;10519516;28;20044;-50
2022/05/15 03:34:03;;;;;;;4.05;2.20;;;;;;;17.97;42.95;97254.22;10509621;28;20036;-50
2022/05/15 03:39:23;;;;;;;4.20;2.40;;;;;;;17.94;43.05;97254.81;10516768;28;20055;-50
2022/05/15 03:44:42;;;;;;;5.32;2.50;;;;;;;17.93;43.14;97255.88;10522640;28;20047;-51
2022/05/15 03:50:03;;;;;;;3.90;2.30;;;;;;;17.91;43.04;97257.31;10525947;28;20044;-51
2022/05/15 03:55:23;;;;;;;6.10;2.15;;;;;;;17.89;43.11;97252.19;10525116;28;20082;-52
2022/05/15 04:00:42;;;;;;;3.75;2.22;;;;;;;17.87;43.06;97264.41;10546772;28;20047;-50
2022/05/15 04:06:02;;;;;;;4.97;2.25;;;;;;;17.88;43.08;97258.72;10504371;28;20049;-50
2022/05/15 04:11:22;;;;;;;3.38;2.20;;;;;;;17.93;43.20;97263.19;10499663;28;20102;-50
2022/05/15 04:16:43;;;;;;;3.90;2.30;;;;;;;17.96;43.36;97265.28;10549912;28;20043;-51
2022/05/15 04:22:05;;;;;;;3.45;2.03;;;;;;;17.96;43.29;97263.38;10490790;28;20105;-52
2022/05/15 04:27:24;;;;;;;2.78;2.20;;;;;;;17.98;43.50;97276.56;10499409;28;20056;-50
2022/05/15 04:32:44;;;;;;;3.38;2.15;;;;;;;17.98;43.43;97271.97;10501249;28;20056;-50
2022/05/15 04:38:04;;;;;;;4.03;2.17;;;;;;;17.98;43.70;97271.97;10520551;28;20647;-50
2022/05/15 04:43:23;;;;;;;3.10;2.05;;;;;;;18.01;43.64;97275.16;10525969;28;20063;-51
2022/05/15 04:48:43;;;;;;;3.13;2.45;;;;;;;18.01;43.76;97283.25;10508294;28;20514;-50
2022/05/15 04:54:03;;;;;;;4.00;2.30;;;;;;;18.02;44.12;97284.84;10500514;28;20052;-51
2022/05/15 04:59:22;;;;;;;4.63;2.60;;;;;;;18.01;44.12;97281.34;10523166;28;20040;-50
2022/05/15 05:04:42;;;;;;;4.53;2.40;;;;;;;18.01;44.35;97289.44;10534799;28;20040;-49
2022/05/15 05:10:01;;;;;;;4.93;2.28;;;;;;;18.02;44.19;97291.03;10514843;28;20052;-49
2022/05/15 05:15:22;;;;;;;4.57;2.30;;;;;;;18.03;44.42;97294.53;10522715;28;20059;-50
2022/05/15 05:20:43;;;;;;;5.22;2.40;;;;;;;18.02;44.10;97298.34;10523463;28;20094;-49
2022/05/15 05:26:03;;;;;;;4.95;2.53;;;;;;;18.01;43.97;97294.81;10531468;28;20110;-50
2022/05/15 05:31:23;;;;;;;5.40;2.58;;;;;;;18.00;44.13;97306.72;10502700;28;20040;-50
2022/05/15 05:36:42;;;;;;;4.55;2.80;;;;;;;18.00;43.99;97300.53;10517151;28;20036;-50
2022/05/15 05:42:02;;;;;;;7.70;2.53;;;;;;;17.99;43.73;97310.50;10532812;28;20048;-51
2022/05/15 05:47:23;;;;;;;5.28;2.80;;;;;;;17.97;43.68;97304.59;10483271;28;20065;-50
2022/05/15 05:52:43;;;;;;;4.28;2.30;;;;;;;17.98;43.94;97308.91;10489546;28;20047;-50
2022/05/15 05:58:02;;;;;;;4.22;2.40;;;;;;;17.98;43.79;97308.91;10505623;28;20044;-50
2022/05/15 06:09:00;;;;;;;5.57;2.63;;;;;;;17.96;43.84;97321.91;10488725;28;20484;-50
2022/05/15 06:14:19;;;;;;;5.55;2.65;;;;;;;17.94;43.71;97324.09;10499037;28;20466;-50
2022/05/15 06:19:40;;;;;;;4.72;2.70;;;;;;;17.93;43.85;97325.97;10482949;28;20961;-50
2022/05/15 06:25:00;;;;;;;5.78;2.30;;;;;;;17.95;44.17;97331.88;10484171;28;20099;-50
2022/05/15 06:30:20;;;;;;;5.57;2.88;;;;;;;17.96;44.29;97332.69;10497651;28;20399;-50
2022/05/15 06:35:39;;;;;;;5.63;2.50;;;;;;;17.96;44.35;97335.38;10479933;28;20060;-50
2022/05/15 06:40:58;;;;;;;4.85;2.40;;;;;;;17.96;44.67;97333.47;10477429;28;20051;-51
2022/05/15 06:46:18;;;;;;;4.07;2.22;;;;;;;17.97;44.70;97334.25;10515220;28;20048;-50
2022/05/15 06:51:37;;;;;;;5.78;2.55;;;;;;;17.98;44.76;97339.34;10502878;28;20051;-50
2022/05/15 07:02:35;;;;;;;4.43;2.30;;;;;;;17.99;44.87;97342.84;10511357;28;20056;-50
2022/05/15 07:07:54;;;;;;;5.63;2.40;;;;;;;18.00;44.76;97339.06;10539020;28;20075;-50
2022/05/15 07:13:13;;;;;;;5.30;2.42;;;;;;;18.02;45.04;97349.56;10553341;28;20070;-50
2022/05/15 07:18:33;;;;;;;4.50;2.35;;;;;;;18.01;45.04;97351.44;10522265;28;20102;-50
2022/05/15 07:23:52;;;;;;;4.68;2.15;;;;;;;18.03;45.02;97354.63;10548874;28;20047;-49
2022/05/15 07:29:15;;;;;;;3.70;1.90;;;;;;;18.02;45.11;97342.25;10537912;28;20101;-50
2022/05/15 07:34:38;;;;;;;6.68;2.30;;;;;;;18.03;45.22;97351.94;10518674;28;20058;-50
2022/05/15 07:39:57;;;;;;;6.63;2.70;;;;;;;18.02;45.18;97353.03;10536059;28;20471;-50
2022/05/15 07:45:17;;;;;;;7.20;2.60;;;;;;;18.03;45.48;97353.84;10502139;28;20075;-50
2022/05/15 07:50:38;;;;;;;4.82;2.60;;;;;;;18.02;45.50;97353.03;10507365;28;20045;-50
2022/05/15 07:56:09;;;;;;;3.97;2.38;;;;;;;18.02;45.46;97346.84;10521861;28;20487;-50
2022/05/15 08:01:29;;;;;;;7.18;2.50;;;;;;;18.04;45.65;97345.44;10504907;28;20075;-50
2022/05/15 08:12:26;;;;;;;4.40;2.30;;;;;;;18.05;45.70;97346.25;10523319;28;20093;-50
2022/05/15 08:17:46;;;;;;;4.75;2.40;;;;;;;18.03;45.60;97343.06;10524786;28;20055;-50
2022/05/15 08:28:44;;;;;;;5.03;2.53;;;;;;;18.02;45.59;97339.56;10513854;28;20453;-50
2022/05/15 08:34:03;;;;;;;6.53;2.65;;;;;;;18.03;45.60;97349.22;10533837;28;20067;-52
2022/05/15 08:39:24;;;;;;;5.60;2.20;;;;;;;18.04;45.57;97347.34;10563362;28;20388;-50
2022/05/15 08:44:46;;;;;;;6.28;2.42;;;;;;;18.03;45.43;97348.44;10525500;28;20083;-51
2022/05/15 08:50:18;;;;;;;6.05;2.13;;;;;;;18.03;45.48;97351.94;10510624;28;20044;-50
2022/05/15 08:55:42;;;;;;;6.38;2.55;;;;;;;18.04;45.48;97344.66;10529204;28;20135;-50
2022/05/15 09:01:05;;;;;;;7.72;2.22;;;;;;;18.05;45.55;97343.53;10529324;28;20552;-50
2022/05/15 09:06:38;;;;;;;5.68;2.75;;;;;;;18.06;45.50;97347.84;10533784;28;20388;-50
2022/05/15 09:12:15;;;;;;;6.45;2.47;;;;;;;18.06;45.66;97345.16;10513957;28;20504;-50
2022/05/15 09:17:58;;;;;;;6.43;2.20;;;;;;;18.06;45.79;97337.06;10516092;28;20052;-50
2022/05/15 09:23:22;;;;;;;6.15;2.20;;;;;;;18.06;45.96;97335.16;10523069;28;20037;-50
2022/05/15 09:28:49;;;;;;;5.85;2.78;;;;;;;18.08;46.02;97337.56;10478492;28;20053;-50
2022/05/15 09:34:42;;;;;;;6.78;2.40;;;;;;;18.08;45.87;97334.88;10540524;28;20052;-52
2022/05/15 09:40:07;;;;;;;3.72;1.98;;;;;;;18.08;45.83;97335.66;10473072;28;20480;-50
2022/05/15 09:45:27;;;;;;;6.05;2.30;;;;;;;18.07;45.86;97333.25;10516804;28;20060;-50
2022/05/15 09:50:56;;;;;;;6.72;2.13;;;;;;;18.08;45.69;97332.16;10525652;28;20048;-50
2022/05/15 09:56:18;;;;;;;6.55;2.33;;;;;;;18.08;45.32;97324.88;10510175;28;20411;-53
2022/05/15 10:01:40;;;;;;;5.55;2.30;;;;;;;18.08;45.44;97319.47;10530126;28;20041;-50
2022/05/15 10:07:02;;;;;;;4.28;2.42;;;;;;;18.08;45.19;97313.31;10517758;28;20075;-50
2022/05/15 10:12:30;;;;;;;5.47;2.10;;;;;;;18.10;45.17;97313.78;10527075;28;20502;-50
2022/05/15 10:17:56;;;;;;;8.25;2.67;;;;;;;18.10;45.01;97317.28;10485356;28;20049;-50
2022/05/15 10:23:28;;;;;;;4.63;2.42;;;;;;;18.11;45.33;97318.06;10530710;28;20036;-52
2022/05/15 10:28:54;;;;;;;5.18;2.22;;;;;;;18.12;45.53;97311.59;10503993;28;20098;-50
2022/05/15 10:34:15;;;;;;;6.30;2.40;;;;;;;18.14;45.59;97312.88;10518685;28;20048;-50
2022/05/15 10:40:19;;;;;;;4.93;2.30;;;;;;;18.14;45.35;97296.69;10536272;28;20047;-51
2022/05/15 10:46:02;;;;;;;5.70;2.47;;;;;;;18.16;45.66;97293.72;10325269;28;20425;-53
2022/05/15 10:51:52;;;;;;;5.32;2.50;;;;;;;18.15;45.72;97287.53;10472633;28;20052;-50
2022/05/15 10:57:37;;;;;;;6.35;2.40;;;;;;;18.17;45.71;97279.94;10505497;28;20055;-51
2022/05/15 11:03:21;;;;;;;5.32;2.50;;;;;;;18.20;45.75;97283.13;10493140;28;20099;-51
2022/05/15 11:08:47;;;;;;;6.65;2.50;;;;;;;18.20;45.82;97270.44;10478639;28;20106;-51
2022/05/15 11:15:01;;;;;;;6.30;2.55;;;;;;;18.20;45.55;97269.63;10481808;28;20392;-51
2022/05/15 11:20:25;;;;;;;4.68;2.20;;;;;;;18.22;45.69;97265.53;10398149;28;20521;-50
2022/05/15 11:25:47;;;;;;;4.95;2.17;;;;;;;18.22;45.70;97265.53;10464462;28;20114;-51
2022/05/15 11:31:10;;;;;;;4.75;2.28;;;;;;;18.24;45.86;97254.44;10456452;28;20049;-53
2022/05/15 11:36:36;;;;;;;8.25;2.55;;;;;;;18.25;45.81;97254.16;10468035;28;20562;-52
2022/05/15 11:42:14;;;;;;;6.35;2.13;;;;;;;18.26;45.71;97260.31;10479227;28;20075;-51
2022/05/15 11:47:37;;;;;;;5.47;2.28;;;;;;;18.27;45.85;97249.25;10513232;28;20056;-51
2022/05/15 11:52:56;;;;;;;5.82;2.17;;;;;;;18.26;45.82;97244.94;10515863;28;20039;-51
2022/05/15 11:58:36;;;;;;;5.32;2.50;;;;;;;18.26;45.70;97244.16;10507919;28;20438;-52
2022/05/15 12:04:03;;;;;;;5.05;2.25;;;;;;;18.28;45.61;97236.53;10526013;28;20056;-50
2022/05/15 12:09:25;;;;;;;6.60;2.30;;;;;;;18.29;45.47;97233.56;10504789;28;20052;-50
2022/05/15 12:15:08;;;;;;;7.30;2.20;;;;;;;18.32;45.07;97221.34;10513376;28;20083;-53
2022/05/15 12:20:28;;;;;;;7.72;2.58;;;;;;;18.32;45.21;97218.66;10548580;28;20044;-51
2022/05/15 12:25:54;;;;;;;5.88;2.65;;;;;;;18.31;44.87;97212.47;10515663;28;20079;-54
2022/05/15 12:31:16;;;;;;;5.45;2.17;;;;;;;18.34;44.96;97208.34;10536415;28;20050;-51
2022/05/15 12:36:42;;;;;;;4.57;2.70;;;;;;;18.33;44.85;97207.56;10492438;28;20416;-51
2022/05/15 12:42:11;;;;;;;4.75;2.22;;;;;;;18.34;44.74;97209.13;10511638;28;20055;-51
2022/05/15 12:47:34;;;;;;;7.95;2.50;;;;;;;18.36;45.01;97201.53;10516873;28;20063;-51
2022/05/15 12:53:01;;;;;;;5.78;2.33;;;;;;;18.38;45.04;97193.97;10502968;28;20060;-50
2022/05/15 12:58:30;;;;;;;6.97;2.30;;;;;;;18.41;45.01;97194.44;10511340;28;20502;-50
2022/05/15 13:03:53;;;;;;;6.70;2.42;;;;;;;18.43;44.64;97192.25;10547677;28;20028;-51
2022/05/15 13:09:21;;;;;;;9.20;2.20;;;;;;;18.42;44.67;97183.34;10544090;28;20043;-51
2022/05/15 13:14:46;;;;;;;6.03;2.45;;;;;;;18.43;44.58;97176.06;10513511;28;20101;-51
2022/05/15 13:20:16;;;;;;;5.32;2.40;;;;;;;18.45;44.63;97190.03;10537183;28;20091;-51
2022/05/15 13:25:38;;;;;;;6.10;2.25;;;;;;;18.45;44.87;97181.94;10519024;28;20098;-52
2022/05/15 13:30:59;;;;;;;6.00;2.22;;;;;;;18.45;45.12;97173.84;10518808;28;20083;-52
2022/05/15 13:36:18;;;;;;;4.47;1.95;;;;;;;18.45;44.95;97166.53;10512723;28;20499;-50
2022/05/15 13:47:19;;;;;;;6.55;2.40;;;;;;;18.48;45.09;97160.50;10507511;28;20068;-50
2022/05/15 13:52:39;;;;;;;4.55;2.05;;;;;;;18.53;44.72;97162.31;10512143;28;20044;-50
2022/05/15 13:57:59;;;;;;;4.25;2.10;;;;;;;18.58;44.70;97159.47;10522459;28;20048;-51
2022/05/15 14:03:31;;;;;;;6.55;2.28;;;;;;;18.61;44.77;97161.56;10515332;28;20055;-51
2022/05/15 14:09:14;;;;;;;5.47;2.42;;;;;;;18.62;44.99;97156.94;10515119;28;20048;-50
2022/05/15 14:14:51;;;;;;;5.03;2.30;;;;;;;18.61;44.96;97148.06;10498435;28;20051;-53
2022/05/15 14:20:11;;;;;;;6.68;2.65;;;;;;;18.64;45.00;97143.94;10511349;28;20071;-51
2022/05/15 14:25:30;;;;;;;10.00;3.30;;;;;;;18.60;44.76;97143.75;10500725;28;20059;-51
2022/05/15 14:30:50;;;;;;;8.63;3.00;;;;;;;18.59;44.75;97136.78;10525140;28;20060;-50
2022/05/15 14:36:27;;;;;;;6.28;2.60;;;;;;;18.62;44.75;97130.78;10539436;28;20036;-53
2022/05/15 14:41:47;;;;;;;6.40;2.55;;;;;;;18.61;44.80;97125.69;10532725;28;20055;-51
2022/05/15 14:47:10;;;;;;;21.52;13.63;;;;;;;18.59;42.81;97123.28;10525356;28;20063;-50
2022/05/15 14:52:31;;;;;;;11.07;6.20;;;;;;;18.57;43.47;97130.91;10499546;28;20450;-50
2022/05/15 14:57:50;;;;;;;7.07;4.63;;;;;;;18.54;43.85;97126.13;10518734;28;20047;-51
2022/05/15 15:03:10;;;;;;;6.53;3.33;;;;;;;18.54;43.71;97115.31;10511774;28;20049;-51
2022/05/15 15:08:30;;;;;;;5.93;3.22;;;;;;;18.53;43.90;97113.75;10486192;28;20471;-52
2022/05/15 15:13:56;;;;;;;9.65;2.95;;;;;;;18.53;44.03;97113.75;10541636;28;20089;-51
2022/05/15 15:19:19;;;;;;;5.57;2.38;;;;;;;18.51;44.37;97111.34;10531296;28;20044;-52
2022/05/15 15:24:38;;;;;;;4.18;2.13;;;;;;;18.52;44.38;97101.34;10525606;28;20432;-55
2022/05/15 15:29:58;;;;;;;6.65;2.10;;;;;;;18.53;44.29;97101.03;10522691;28;20437;-51
2022/05/15 15:35:18;;;;;;;6.53;2.60;;;;;;;18.52;44.33;97093.25;10546320;28;20049;-51
2022/05/15 15:40:37;;;;;;;5.97;2.17;;;;;;;18.52;44.02;97102.16;10537400;28;20070;-51
2022/05/15 15:45:57;;;;;;;6.47;2.22;;;;;;;18.52;43.97;97104.03;10534752;28;20087;-52
2022/05/15 15:51:24;;;;;;;7.30;2.70;;;;;;;18.53;44.14;97094.84;10514935;28;20040;-51
2022/05/15 15:56:44;;;;;;;5.43;2.90;;;;;;;18.53;43.86;97087.56;10550530;28;20048;-51
2022/05/15 16:02:04;;;;;;;7.85;2.97;;;;;;;18.57;43.97;97082.34;10533737;28;20048;-51
2022/05/15 16:07:23;;;;;;;6.53;2.60;;;;;;;18.60;44.07;97073.59;10549102;28;20039;-50
2022/05/15 16:12:45;;;;;;;6.90;2.65;;;;;;;18.60;44.12;97065.50;10514631;28;20110;-51
2022/05/15 16:18:04;;;;;;;10.63;2.28;;;;;;;18.62;44.23;97070.59;10531691;28;20059;-51
2022/05/15 16:23:28;;;;;;;5.38;2.53;;;;;;;18.64;44.23;97066.50;10518598;28;20048;-50
2022/05/15 16:28:48;;;;;;;6.40;2.47;;;;;;;18.65;44.18;97070.78;10508392;28;20056;-50
2022/05/15 16:34:07;;;;;;;5.72;1.92;;;;;;;18.64;44.17;97069.22;10519376;28;20048;-53
2022/05/15 16:39:27;;;;;;;3.83;2.10;;;;;;;18.65;44.22;97072.69;10519323;28;20044;-50
2022/05/15 16:44:49;;;;;;;5.07;2.00;;;;;;;18.67;44.38;97071.25;10521691;28;20052;-51
2022/05/15 16:50:11;;;;;;;5.32;2.20;;;;;;;18.68;44.41;97074.75;10508965;28;20044;-50
2022/05/15 16:55:32;;;;;;;10.82;2.20;;;;;;;18.66;44.17;97076.97;10501722;28;20068;-50
2022/05/15 17:00:51;;;;;;;3.67;1.98;;;;;;;18.64;44.38;97071.91;10497541;28;20106;-50
2022/05/15 17:06:11;;;;;;;5.85;2.47;;;;;;;18.64;44.08;97073.78;10533910;28;20079;-51
2022/05/15 17:11:31;;;;;;;6.15;2.45;;;;;;;18.65;44.02;97083.47;10520290;28;20052;-51
2022/05/15 17:16:50;;;;;;;6.75;2.80;;;;;;;18.64;43.90;97080.00;10509508;28;20059;-50
2022/05/15 17:22:10;;;;;;;6.05;2.25;;;;;;;18.62;42.53;97079.50;10510410;28;20689;-51
2022/05/15 17:27:30;;;;;;;5.32;2.15;;;;;;;18.61;42.15;97069.03;10491161;28;20088;-50
2022/05/15 17:38:29;;;;;;;5.87;2.20;;;;;;;18.60;43.87;97070.91;10505501;28;20072;-51
2022/05/15 17:43:48;;;;;;;9.35;3.03;;;;;;;18.59;43.92;97069.34;10484840;28;20048;-49
2022/05/15 17:49:09;;;;;;;13.77;3.30;;;;;;;18.56;43.96;97070.75;10512837;28;20043;-50
2022/05/15 17:54:29;;;;;;;5.95;3.10;;;;;;;18.55;44.12;97074.53;10498946;28;20070;-50
2022/05/15 17:59:48;;;;;;;8.48;2.33;;;;;;;18.54;44.08;97078.38;10508806;28;20682;-52
2022/05/15 18:05:08;;;;;;;5.07;2.38;;;;;;;18.51;43.85;97080.88;10508755;28;20063;-51
2022/05/15 18:10:29;;;;;;;6.00;2.20;;;;;;;18.49;43.95;97075.00;10510397;28;20047;-52
2022/05/15 18:15:49;;;;;;;8.82;1.98;;;;;;;18.48;44.11;97078.78;10524449;28;20494;-51
2022/05/15 18:21:09;;;;;;;7.78;2.20;;;;;;;18.47;43.88;97069.13;10518527;28;20102;-54
2022/05/15 18:26:30;;;;;;;8.32;2.00;;;;;;;18.45;43.83;97076.72;10524373;28;20056;-50
2022/05/15 18:31:49;;;;;;;6.35;2.00;;;;;;;18.42;43.74;97074.63;10515845;28;20479;-51
2022/05/15 18:37:09;;;;;;;9.38;2.38;;;;;;;18.40;43.86;97077.63;10540020;28;20052;-51
2022/05/15 18:42:29;;;;;;;4.82;2.22;;;;;;;18.38;43.55;97083.38;10520846;28;20044;-51
2022/05/15 18:47:49;;;;;;;5.78;2.05;;;;;;;18.35;43.15;97081.28;10528947;28;20518;-50
2022/05/15 18:58:46;;;;;;;5.37;2.30;;;;;;;18.42;44.77;97091.63;10531330;28;20118;-51
2022/05/15 19:04:06;;;;;;;8.40;2.53;;;;;;;18.45;45.14;97098.31;10504717;28;20426;-50
2022/05/15 19:09:27;;;;;;;7.05;2.30;;;;;;;18.47;45.41;97101.50;10504122;28;20487;-51
2022/05/15 19:14:47;;;;;;;8.18;2.25;;;;;;;18.46;45.73;97106.06;10499985;28;20043;-50
2022/05/15 19:20:09;;;;;;;4.88;2.30;;;;;;;18.49;46.11;97107.38;10498444;28;20438;-51
2022/05/15 19:25:29;;;;;;;4.70;1.90;;;;;;;18.49;46.27;97110.88;10510541;28;20040;-52
2022/05/15 19:30:49;;;;;;;5.53;2.20;;;;;;;18.48;46.46;97108.47;10499296;28;20044;-51
2022/05/15 19:36:09;;;;;;;5.57;2.15;;;;;;;18.49;46.88;97110.06;10515735;28;20546;-51
2022/05/15 19:41:29;;;;;;;5.28;2.10;;;;;;;18.51;47.18;97126.75;10512450;28;20056;-51
2022/05/15 19:46:48;;;;;;;4.78;2.08;;;;;;;18.52;47.48;97126.44;10514024;28;20070;-51
2022/05/15 19:52:10;;;;;;;4.70;1.98;;;;;;;18.52;47.35;97121.06;10511033;28;20074;-51
2022/05/15 19:57:31;;;;;;;4.63;2.30;;;;;;;18.51;47.44;97118.66;10517766;28;20060;-50
2022/05/15 20:02:51;;;;;;;7.40;2.30;;;;;;;18.50;47.41;97119.75;10520230;28;20068;-51
2022/05/15 20:13:49;;;;;;;3.28;1.90;;;;;;;18.51;47.65;97116.75;10528397;28;20498;-50
2022/05/15 20:19:10;;;;;;;4.47;1.95;;;;;;;18.51;47.64;97111.34;10518604;28;20514;-53
2022/05/15 20:24:29;;;;;;;5.07;1.90;;;;;;;18.53;48.11;97116.44;10514927;28;20047;-52
2022/05/15 20:29:49;;;;;;;3.22;2.05;;;;;;;18.53;48.23;97119.94;10516193;28;20040;-51
2022/05/15 20:35:08;;;;;;;2.17;1.60;;;;;;;18.54;48.30;97120.72;10518808;28;20090;-51
2022/05/15 20:40:28;;;;;;;4.03;1.90;;;;;;;18.54;48.16;97121.53;10526563;28;20041;-50
2022/05/15 20:45:47;;;;;;;3.15;1.80;;;;;;;18.55;48.25;97127.72;10516092;28;20095;-52
2022/05/15 20:51:07;;;;;;;5.75;1.92;;;;;;;18.56;48.40;97135.50;10510930;28;20044;-51
2022/05/15 20:56:26;;;;;;;2.92;1.90;;;;;;;18.56;48.73;97140.91;10515392;28;20549;-50
2022/05/15 21:01:46;;;;;;;2.97;1.60;;;;;;;18.56;48.78;97134.69;10501688;28;20084;-51
2022/05/15 21:07:05;;;;;;;3.60;1.73;;;;;;;18.57;48.89;97141.69;10507760;28;20581;-50
2022/05/15 21:12:25;;;;;;;4.10;2.10;;;;;;;18.57;48.79;97137.09;10505803;28;20047;-50
2022/05/15 21:17:45;;;;;;;3.05;1.60;;;;;;;18.56;49.02;97129.31;10508717;28;20561;-50
2022/05/15 21:23:05;;;;;;;3.30;1.52;;;;;;;18.57;48.83;97125.50;10492248;28;20521;-50
2022/05/15 21:28:25;;;;;;;4.43;1.63;;;;;;;18.57;49.08;97130.91;10500412;28;20110;-51
2022/05/15 21:33:44;;;;;;;2.70;1.67;;;;;;;18.57;48.88;97125.50;10496225;28;20114;-51
2022/05/15 21:44:42;;;;;;;2.40;1.47;;;;;;;18.57;49.15;97123.59;10534325;28;20055;-51
2022/05/15 21:50:02;;;;;;;2.97;1.63;;;;;;;18.56;49.14;97126.59;10520527;28;20848;-52
2022/05/15 21:55:22;;;;;;;3.55;1.70;;;;;;;18.57;49.01;97110.09;10533840;28;20047;-53
2022/05/15 22:00:44;;;;;;;2.70;1.50;;;;;;;18.57;49.21;97110.09;10527534;28;20492;-51
2022/05/15 22:06:12;;;;;;;2.75;1.48;;;;;;;18.57;49.21;97098.53;10515753;28;20052;-51
2022/05/15 22:11:32;;;;;;;3.20;1.70;;;;;;;18.56;49.22;97096.91;10525144;28;20044;-51
2022/05/15 22:16:51;;;;;;;2.60;1.40;;;;;;;18.57;49.29;97102.00;10533712;28;20051;-51
2022/05/15 22:22:10;;;;;;;3.97;1.52;;;;;;;18.58;49.12;97108.19;10537070;28;20048;-50
2022/05/15 22:27:32;;;;;;;2.38;1.38;;;;;;;18.57;49.34;97103.94;10542599;28;20069;-51
2022/05/15 22:32:52;;;;;;;2.60;1.48;;;;;;;18.57;49.38;97102.00;10520056;28;20049;-53
2022/05/15 22:38:14;;;;;;;2.47;1.60;;;;;;;18.58;49.44;97105.50;10532436;28;20048;-50
2022/05/15 22:43:33;;;;;;;2.15;1.40;;;;;;;18.57;49.25;97102.00;10517993;28;20439;-51
2022/05/15 22:48:53;;;;;;;2.22;1.35;;;;;;;18.58;49.33;97113.59;10515686;28;20099;-53
2022/05/15 22:54:12;;;;;;;1.80;1.30;;;;;;;18.59;49.33;97117.91;10527116;28;20040;-50
2022/05/15 22:59:32;;;;;;;2.03;1.25;;;;;;;18.57;49.37;97107.41;10520012;28;20530;-51
2022/05/15 23:10:30;;;;;;;2.10;1.20;;;;;;;18.58;49.26;97109.00;10549393;28;20040;-50
2022/05/15 23:15:50;;;;;;;1.90;1.33;;;;;;;18.58;49.44;97110.91;10512295;28;20511;-50
2022/05/15 23:21:09;;;;;;;2.35;1.10;;;;;;;18.58;49.39;97106.31;10529676;28;20066;-50
2022/05/15 23:26:28;;;;;;;1.55;1.30;;;;;;;18.58;49.25;97105.50;10533031;28;20457;-51
2022/05/15 23:31:47;;;;;;;1.85;1.23;;;;;;;18.58;49.40;97116.28;10533556;28;20051;-51
2022/05/15 23:37:07;;;;;;;1.92;1.30;;;;;;;18.58;49.40;97100.09;10531826;28;20045;-50
2022/05/15 23:42:26;;;;;;;1.70;1.30;;;;;;;18.58;49.20;97105.50;10509277;28;20086;-52
2022/05/15 23:47:46;;;;;;;1.27;1.00;;;;;;;18.59;49.21;97112.50;10499006;28;20056;-50
2022/05/15 23:53:06;;;;;;;1.80;1.20;;;;;;;18.58;49.24;97111.72;10520904;28;20641;-50
2022/05/15 23:58:25;;;;;;;1.25;1.15;;;;;;;18.58;49.37;97113.59;10493295;28;20048;-50
